Terminal Aerodrome Forecast
Issued by NWS Wilmington, NC

Home | Current Version | Previous Version | Text Only | Print | Product List | Glossary On
Versions: 1 2 3 4 5 6 7 8 9 10 11 12 13
268
FTUS42 KILM 222345 CCA
TAFLBT
TAF COR
KLBT 222345Z 2300/2324 14008KT P6SM VCSH SCT050 BKN090
     FM231200 08008KT P6SM -RA SCT040 OVC080
     FM231600 09010G20KT 5SM -RA OVC020
     FM232000 10010G20KT 3SM -RA BR OVC010=

USA.gov is the U.S. government's official web portal to all federal, state and local government web resources and services.